Time;durP1;ratioP1;P1;durP2;ratioP2;P2;SDS_P1;SDS_P2;PMS_P1;PMS_P2;Temp;Humidity;BMP_temperature;BMP_pressure;BME280_temperature;BME280_humidity;BME280_pressure;Samples;Min_cycle;Max_cycle;Signal;HPM_P1;HPM_P2
2021/12/09 00:01:07;;;;;;;11.20;5.43;;;6.80;99.90;;;;;;5051548;28;20712;-59
2021/12/09 00:03:36;;;;;;;9.47;5.50;;;6.80;99.90;;;;;;5051697;28;20225;-59
2021/12/09 00:06:05;;;;;;;7.93;5.00;;;6.90;99.90;;;;;;5051914;28;20217;-58
2021/12/09 00:08:34;;;;;;;13.20;5.87;;;7.00;99.90;;;;;;5052052;28;20205;-57
2021/12/09 00:11:03;;;;;;;8.40;4.90;;;7.00;99.90;;;;;;5051545;28;20582;-57
2021/12/09 00:13:30;;;;;;;8.67;5.13;;;7.10;99.90;;;;;;5052462;28;20228;-59
2021/12/09 00:15:58;;;;;;;8.20;5.17;;;7.30;99.90;;;;;;5053092;28;20205;-57
2021/12/09 00:18:25;;;;;;;8.53;5.23;;;7.40;99.90;;;;;;5055549;28;20255;-56
2021/12/09 00:20:53;;;;;;;7.07;5.10;;;7.40;99.90;;;;;;5055402;28;20718;-58
2021/12/09 00:23:20;;;;;;;6.70;4.53;;;7.50;99.90;;;;;;5055573;28;20229;-57
2021/12/09 00:25:48;;;;;;;8.37;4.87;;;7.50;99.90;;;;;;5055475;28;20228;-57
2021/12/09 00:28:15;;;;;;;12.70;5.10;;;7.50;99.90;;;;;;5055416;28;20205;-57
2021/12/09 00:30:42;;;;;;;9.70;5.10;;;7.50;99.90;;;;;;5055434;28;20229;-59
2021/12/09 00:33:10;;;;;;;7.27;5.40;;;7.50;99.90;;;;;;5055549;28;20205;-57
2021/12/09 00:35:44;;;;;;;10.17;5.43;;;7.50;99.90;;;;;;5055580;28;20206;-57
2021/12/09 00:38:19;;;;;;;11.40;5.70;;;7.50;99.90;;;;;;5055440;28;20283;-57
2021/12/09 00:40:48;;;;;;;7.53;5.23;;;7.50;99.90;;;;;;5055199;28;20240;-57
2021/12/09 00:43:17;;;;;;;8.03;4.93;;;7.60;99.90;;;;;;5055192;28;20611;-57
2021/12/09 00:45:44;;;;;;;6.60;5.10;;;7.60;99.90;;;;;;5055376;28;20209;-57
2021/12/09 00:48:11;;;;;;;9.47;5.20;;;7.60;99.90;;;;;;5055215;28;20237;-57
2021/12/09 00:50:38;;;;;;;8.40;5.23;;;7.60;99.90;;;;;;5054912;28;20315;-57
2021/12/09 00:53:04;;;;;;;11.23;5.57;;;7.60;99.90;;;;;;5055063;28;20202;-56
2021/12/09 00:55:31;;;;;;;8.97;5.47;;;7.50;99.90;;;;;;5054911;28;20210;-58
2021/12/09 00:57:59;;;;;;;11.73;6.00;;;7.50;99.90;;;;;;5055235;28;20210;-58
2021/12/09 01:00:27;;;;;;;10.57;6.00;;;7.50;99.90;;;;;;5054721;28;20221;-58
2021/12/09 01:02:53;;;;;;;10.27;5.87;;;7.50;99.90;;;;;;5055178;28;20213;-58
2021/12/09 01:05:20;;;;;;;9.10;5.63;;;7.50;99.90;;;;;;5054866;28;20229;-57
2021/12/09 01:07:47;;;;;;;11.93;6.30;;;7.50;99.90;;;;;;5054836;28;20695;-57
2021/12/09 01:10:16;;;;;;;8.17;6.00;;;7.50;99.90;;;;;;5054396;28;20229;-57
2021/12/09 01:12:42;;;;;;;9.10;5.53;;;7.60;99.90;;;;;;5054691;28;20256;-58
2021/12/09 01:15:14;;;;;;;8.37;6.20;;;7.60;99.90;;;;;;5054950;28;20267;-58
2021/12/09 01:17:40;;;;;;;10.83;6.30;;;7.60;99.90;;;;;;5054628;28;20216;-57
2021/12/09 01:20:10;;;;;;;11.60;6.33;;;7.50;99.90;;;;;;5054128;28;20222;-58
2021/12/09 01:22:40;;;;;;;8.87;5.80;;;7.40;99.90;;;;;;5054383;28;20210;-57
2021/12/09 01:25:09;;;;;;;8.80;6.20;;;7.40;99.90;;;;;;5054497;28;20287;-58
2021/12/09 01:27:39;;;;;;;10.70;5.80;;;7.40;99.90;;;;;;5053549;28;20206;-58
2021/12/09 01:30:10;;;;;;;8.37;5.00;;;7.40;99.90;;;;;;5053998;28;20225;-57
2021/12/09 01:32:43;;;;;;;6.23;4.20;;;7.40;99.90;;;;;;5054317;28;20229;-57
2021/12/09 01:35:11;;;;;;;7.00;4.00;;;7.40;99.90;;;;;;5054543;28;20214;-57
2021/12/09 01:37:39;;;;;;;6.77;3.93;;;7.20;99.90;;;;;;5054446;28;20209;-58
2021/12/09 01:40:07;;;;;;;6.37;3.90;;;7.20;99.90;;;;;;5053993;28;20287;-57
2021/12/09 01:42:34;;;;;;;5.77;3.33;;;7.20;99.90;;;;;;5054188;28;20296;-57
2021/12/09 01:45:00;;;;;;;7.57;4.10;;;7.20;99.90;;;;;;5054067;28;20267;-57
2021/12/09 01:47:27;;;;;;;7.47;3.80;;;7.20;99.90;;;;;;5054240;28;20205;-58
2021/12/09 01:49:55;;;;;;;6.13;3.63;;;7.10;99.90;;;;;;5054080;28;20226;-58
2021/12/09 01:52:22;;;;;;;5.37;3.00;;;7.20;99.90;;;;;;5054310;28;20225;-58
2021/12/09 01:54:49;;;;;;;6.63;3.27;;;7.30;99.90;;;;;;5054069;28;20209;-57
2021/12/09 01:57:16;;;;;;;7.70;3.10;;;7.40;99.90;;;;;;5053954;28;20213;-57
2021/12/09 01:59:42;;;;;;;5.60;2.90;;;7.40;99.90;;;;;;5053566;28;20209;-59
2021/12/09 02:02:09;;;;;;;5.93;2.70;;;7.40;99.90;;;;;;5054148;28;20201;-58
2021/12/09 02:04:36;;;;;;;5.30;2.53;;;7.30;99.90;;;;;;5053929;28;20233;-57
2021/12/09 02:07:05;;;;;;;4.87;2.50;;;7.20;99.90;;;;;;5053850;28;20209;-58
2021/12/09 02:09:31;;;;;;;4.37;2.67;;;7.00;99.90;;;;;;5053603;28;20213;-58
2021/12/09 02:11:58;;;;;;;4.57;2.80;;;6.80;99.90;;;;;;5053767;28;20716;-58
2021/12/09 02:14:25;;;;;;;4.77;2.93;;;6.90;99.90;;;;;;5053472;28;20205;-58
2021/12/09 02:16:52;;;;;;;3.63;2.60;;;7.00;99.90;;;;;;5053885;28;20212;-59
2021/12/09 02:19:18;;;;;;;5.37;3.00;;;7.00;99.90;;;;;;5053801;28;20205;-59
2021/12/09 02:21:46;;;;;;;5.57;2.67;;;7.10;99.90;;;;;;5053532;28;20233;-57
2021/12/09 02:24:16;;;;;;;5.43;2.40;;;7.20;99.90;;;;;;5053469;28;20603;-58
2021/12/09 02:26:47;;;;;;;4.17;2.60;;;7.30;99.90;;;;;;5054544;28;20205;-58
2021/12/09 02:29:15;;;;;;;4.17;2.40;;;7.40;99.90;;;;;;5054957;28;20209;-57
2021/12/09 02:31:44;;;;;;;4.73;2.33;;;7.40;99.90;;;;;;5055092;28;20283;-58
2021/12/09 02:34:12;;;;;;;3.90;2.43;;;7.30;99.90;;;;;;5054540;28;20197;-57
2021/12/09 02:36:41;;;;;;;5.37;2.20;;;7.20;99.90;;;;;;5053212;28;20205;-57
2021/12/09 02:39:11;;;;;;;5.57;2.43;;;6.90;99.90;;;;;;5052928;28;20288;-58
2021/12/09 02:41:40;;;;;;;5.37;2.20;;;6.80;99.90;;;;;;5052526;28;20770;-58
2021/12/09 02:44:09;;;;;;;3.37;2.10;;;6.80;99.90;;;;;;5052973;28;20424;-58
2021/12/09 02:46:38;;;;;;;4.07;2.20;;;6.90;99.90;;;;;;5053142;28;20205;-58
2021/12/09 02:49:07;;;;;;;4.37;2.63;;;7.10;99.90;;;;;;5052772;28;20772;-58
2021/12/09 02:51:35;;;;;;;6.47;3.20;;;7.20;99.90;;;;;;5052419;28;20717;-58
2021/12/09 02:54:01;;;;;;;5.47;3.47;;;7.30;99.90;;;;;;5052693;28;20205;-57
2021/12/09 02:56:30;;;;;;;6.43;3.57;;;7.40;99.90;;;;;;5052921;28;20209;-58
2021/12/09 02:58:56;;;;;;;6.23;3.20;;;7.50;99.90;;;;;;5052733;28;20280;-58
2021/12/09 03:01:26;;;;;;;7.30;3.80;;;7.50;99.90;;;;;;5052374;28;20222;-58
2021/12/09 03:03:58;;;;;;;6.83;4.30;;;7.50;99.90;;;;;;5052940;28;20251;-57
2021/12/09 03:06:31;;;;;;;10.50;4.10;;;7.50;99.90;;;;;;5052467;28;20245;-57
2021/12/09 03:09:01;;;;;;;8.27;5.10;;;7.50;99.90;;;;;;5052923;28;20190;-57
2021/12/09 03:11:28;;;;;;;10.67;4.83;;;7.40;99.90;;;;;;5052256;28;20279;-57
2021/12/09 03:13:56;;;;;;;7.47;5.23;;;7.40;99.90;;;;;;5052341;28;20677;-58
2021/12/09 03:16:23;;;;;;;10.97;5.30;;;7.40;99.90;;;;;;5052374;28;20210;-57
2021/12/09 03:18:52;;;;;;;9.97;5.10;;;7.40;99.90;;;;;;5052230;28;20666;-57
2021/12/09 03:21:21;;;;;;;8.30;5.07;;;7.40;99.90;;;;;;5051925;28;20259;-57
2021/12/09 03:23:48;;;;;;;8.90;5.23;;;7.40;99.90;;;;;;5052428;28;20236;-58
2021/12/09 03:26:18;;;;;;;13.93;5.40;;;7.40;99.90;;;;;;5052010;28;20312;-58
2021/12/09 03:28:45;;;;;;;13.93;5.57;;;7.30;99.90;;;;;;5052382;28;20209;-57
2021/12/09 03:31:13;;;;;;;11.20;5.33;;;7.30;99.90;;;;;;5051885;28;20225;-58
2021/12/09 03:33:40;;;;;;;12.53;4.90;;;7.30;99.90;;;;;;5052065;28;20231;-58
2021/12/09 03:36:08;;;;;;;8.97;5.03;;;7.20;99.90;;;;;;5052239;28;20629;-58
2021/12/09 03:38:36;;;;;;;9.13;5.13;;;7.20;99.90;;;;;;5052401;28;20267;-58
2021/12/09 03:41:03;;;;;;;10.70;5.30;;;7.30;99.90;;;;;;5051775;28;20717;-58
2021/12/09 03:43:29;;;;;;;11.67;4.93;;;7.30;99.90;;;;;;5051965;28;20201;-58
2021/12/09 03:45:56;;;;;;;11.03;5.10;;;7.30;99.90;;;;;;5051893;28;20229;-57
2021/12/09 03:48:26;;;;;;;9.97;4.73;;;7.20;99.90;;;;;;5051899;28;20232;-58
2021/12/09 03:50:53;;;;;;;9.67;4.93;;;7.20;99.90;;;;;;5051316;28;20230;-57
2021/12/09 03:53:21;;;;;;;10.33;5.43;;;7.10;99.90;;;;;;5052256;28;20228;-58
2021/12/09 03:55:47;;;;;;;8.23;4.50;;;7.00;99.90;;;;;;5052027;28;20206;-58
2021/12/09 03:58:15;;;;;;;10.23;4.47;;;7.00;99.90;;;;;;5051830;28;20206;-58
2021/12/09 04:00:41;;;;;;;10.53;5.03;;;7.00;99.90;;;;;;5051563;28;20283;-57
2021/12/09 04:03:08;;;;;;;13.37;5.50;;;6.90;99.90;;;;;;5051912;28;20206;-57
2021/12/09 04:05:38;;;;;;;9.60;4.50;;;6.90;99.90;;;;;;5051852;28;20233;-57
2021/12/09 04:08:07;;;;;;;8.50;4.90;;;6.80;99.90;;;;;;5051966;28;20205;-57
2021/12/09 04:10:35;;;;;;;9.03;4.40;;;6.80;99.90;;;;;;5051576;28;20260;-57
2021/12/09 04:13:03;;;;;;;14.03;4.93;;;6.70;99.90;;;;;;5051797;28;20217;-57
2021/12/09 04:15:30;;;;;;;8.93;5.00;;;6.70;99.90;;;;;;5051572;28;20206;-59
2021/12/09 04:17:57;;;;;;;13.17;6.73;;;6.70;99.90;;;;;;5051547;28;20673;-59
2021/12/09 04:20:24;;;;;;;11.73;4.57;;;6.70;99.90;;;;;;5051494;28;20252;-57
2021/12/09 04:22:53;;;;;;;7.00;4.10;;;6.70;99.90;;;;;;5051785;28;20274;-57
2021/12/09 04:25:21;;;;;;;11.60;5.23;;;6.70;99.90;;;;;;5051535;28;20217;-57
2021/12/09 04:27:50;;;;;;;8.80;4.17;;;6.60;99.90;;;;;;5051437;28;20288;-58
2021/12/09 04:30:19;;;;;;;11.87;4.23;;;6.60;99.90;;;;;;5051187;28;20342;-57
2021/12/09 04:32:46;;;;;;;9.87;4.13;;;6.70;99.90;;;;;;5051693;28;20218;-57
2021/12/09 04:35:13;;;;;;;15.30;4.23;;;6.70;99.90;;;;;;5051579;28;20205;-57
2021/12/09 04:37:40;;;;;;;9.30;4.40;;;6.60;99.90;;;;;;5051502;28;20209;-57
2021/12/09 04:40:11;;;;;;;11.17;4.33;;;6.60;99.90;;;;;;5051136;28;20234;-57
2021/12/09 04:42:38;;;;;;;7.77;4.03;;;6.60;99.90;;;;;;5051289;28;20214;-56
2021/12/09 04:45:06;;;;;;;14.70;4.03;;;6.60;99.90;;;;;;5051511;28;20225;-57
2021/12/09 04:47:34;;;;;;;9.40;4.37;;;6.70;99.90;;;;;;5051434;28;20209;-57
2021/12/09 04:50:00;;;;;;;8.87;4.97;;;6.70;99.90;;;;;;5051244;28;20230;-57
2021/12/09 04:52:27;;;;;;;7.43;4.43;;;6.70;99.90;;;;;;5051376;28;20637;-57
2021/12/09 04:54:54;;;;;;;11.57;4.33;;;6.70;99.90;;;;;;5051324;28;20205;-57
2021/12/09 04:57:22;;;;;;;8.60;4.13;;;6.70;99.90;;;;;;5051091;28;20210;-58
2021/12/09 04:59:51;;;;;;;9.87;4.20;;;6.70;99.90;;;;;;5051250;28;20213;-58
2021/12/09 05:02:26;;;;;;;11.10;4.20;;;6.70;99.90;;;;;;5051699;28;20208;-58
2021/12/09 05:04:52;;;;;;;10.60;4.50;;;6.80;99.90;;;;;;5054982;28;20248;-58
2021/12/09 05:07:19;;;;;;;9.90;4.80;;;6.80;99.90;;;;;;5054878;28;20279;-58
2021/12/09 05:09:50;;;;;;;10.03;4.20;;;6.70;99.90;;;;;;5054461;28;20210;-58
2021/12/09 05:12:17;;;;;;;12.33;4.40;;;6.70;99.90;;;;;;5054672;28;20206;-58
2021/12/09 05:14:46;;;;;;;7.20;4.40;;;6.70;99.90;;;;;;5054727;28;20202;-58
2021/12/09 05:17:13;;;;;;;10.40;4.23;;;6.80;99.90;;;;;;5054576;28;20216;-57
2021/12/09 05:19:39;;;;;;;10.30;4.10;;;6.80;99.90;;;;;;5054157;28;20201;-58
2021/12/09 05:22:06;;;;;;;7.93;4.10;;;6.80;99.90;;;;;;5054491;28;20214;-58
2021/12/09 05:24:34;;;;;;;13.67;4.70;;;6.90;99.90;;;;;;5054606;28;20240;-58
2021/12/09 05:27:01;;;;;;;11.00;4.50;;;6.90;99.90;;;;;;5054558;28;20208;-58
2021/12/09 05:29:33;;;;;;;8.10;4.00;;;6.90;99.90;;;;;;5054439;28;20206;-58
2021/12/09 05:32:10;;;;;;;8.93;4.10;;;7.00;99.90;;;;;;5054236;28;20292;-59
2021/12/09 05:34:38;;;;;;;8.90;4.17;;;6.90;99.90;;;;;;5054145;28;20578;-56
2021/12/09 05:37:06;;;;;;;9.13;4.00;;;6.80;99.90;;;;;;5054584;28;20213;-56
2021/12/09 05:39:33;;;;;;;12.77;4.67;;;6.80;99.90;;;;;;5054187;28;20205;-59
2021/12/09 05:42:00;;;;;;;6.93;4.00;;;6.80;99.90;;;;;;5054408;28;20246;-54
2021/12/09 05:44:27;;;;;;;10.87;4.33;;;6.80;99.90;;;;;;5054236;28;20444;-55
2021/12/09 05:46:54;;;;;;;13.00;3.87;;;6.80;99.90;;;;;;5053889;28;20705;-55
2021/12/09 05:49:22;;;;;;;13.43;4.50;;;6.80;99.90;;;;;;5054206;28;20213;-54
2021/12/09 05:51:49;;;;;;;11.07;4.43;;;6.80;99.90;;;;;;5053877;28;20229;-54
2021/12/09 05:54:16;;;;;;;8.87;3.83;;;6.80;99.90;;;;;;5054052;28;20263;-55
2021/12/09 05:56:44;;;;;;;10.97;4.07;;;6.90;99.90;;;;;;5053783;28;20710;-55
2021/12/09 05:59:11;;;;;;;8.90;3.90;;;6.90;99.90;;;;;;5053639;28;20621;-56
2021/12/09 06:01:40;;;;;;;10.97;4.03;;;6.90;99.90;;;;;;5053317;28;20229;-56
2021/12/09 06:04:07;;;;;;;9.70;4.30;;;7.00;99.90;;;;;;5054097;28;20216;-56
2021/12/09 06:06:36;;;;;;;8.83;4.00;;;7.00;99.90;;;;;;5053625;28;20233;-55
2021/12/09 06:09:04;;;;;;;9.43;4.50;;;7.00;99.90;;;;;;5053483;28;20263;-55
2021/12/09 06:11:30;;;;;;;10.73;4.07;;;7.00;99.90;;;;;;5053387;28;20233;-55
2021/12/09 06:13:57;;;;;;;10.97;4.63;;;7.00;99.90;;;;;;5053223;28;20263;-55
2021/12/09 06:16:24;;;;;;;9.60;4.07;;;7.00;99.90;;;;;;5053813;28;20764;-56
2021/12/09 06:18:51;;;;;;;15.03;4.67;;;7.00;99.90;;;;;;5053678;28;20217;-56
2021/12/09 06:21:19;;;;;;;11.97;4.23;;;7.00;99.90;;;;;;5053298;28;20225;-57
2021/12/09 06:23:47;;;;;;;16.10;4.13;;;7.00;99.90;;;;;;5053345;28;20297;-55
2021/12/09 06:26:14;;;;;;;9.77;4.80;;;7.00;99.90;;;;;;5053365;28;20225;-56
2021/12/09 06:28:41;;;;;;;10.10;4.30;;;7.00;99.90;;;;;;5053206;28;20296;-57
2021/12/09 06:31:07;;;;;;;9.17;3.50;;;7.00;99.90;;;;;;5053119;28;20229;-56
2021/12/09 06:33:34;;;;;;;14.87;6.17;;;6.90;99.90;;;;;;5053214;28;20220;-55
2021/12/09 06:36:01;;;;;;;7.80;4.07;;;6.90;99.90;;;;;;5053178;28;20678;-54
2021/12/09 06:38:28;;;;;;;10.03;3.93;;;6.90;99.90;;;;;;5053068;28;20202;-54
2021/12/09 06:40:56;;;;;;;9.23;4.07;;;6.80;99.90;;;;;;5052686;28;20241;-54
2021/12/09 06:43:23;;;;;;;10.27;4.20;;;6.80;99.90;;;;;;5052768;28;20263;-55
2021/12/09 06:45:51;;;;;;;10.83;3.77;;;6.80;99.90;;;;;;5052780;28;20229;-55
2021/12/09 06:48:17;;;;;;;7.03;4.10;;;6.70;99.90;;;;;;5052731;28;20673;-55
2021/12/09 06:50:44;;;;;;;10.17;4.70;;;6.70;99.90;;;;;;5052758;28;20256;-55
2021/12/09 06:53:14;;;;;;;12.30;4.50;;;6.60;99.90;;;;;;5053496;28;20201;-55
2021/12/09 06:55:41;;;;;;;12.47;3.77;;;6.60;99.90;;;;;;5052862;28;20208;-56
2021/12/09 06:58:09;;;;;;;14.30;3.80;;;6.50;99.90;;;;;;5053131;28;20205;-55
2021/12/09 07:00:41;;;;;;;9.73;3.40;;;6.50;99.90;;;;;;5052638;28;20233;-55
2021/12/09 07:03:08;;;;;;;15.17;4.30;;;6.50;99.90;;;;;;5052590;28;20245;-55
2021/12/09 07:05:36;;;;;;;14.27;6.37;;;6.40;99.90;;;;;;5052447;28;20226;-56
2021/12/09 07:08:04;;;;;;;13.30;3.87;;;6.40;99.90;;;;;;5052862;28;20296;-55
2021/12/09 07:10:31;;;;;;;8.53;3.87;;;6.20;99.90;;;;;;5052244;28;20229;-55
2021/12/09 07:12:57;;;;;;;9.43;4.50;;;6.20;99.90;;;;;;5052667;28;20210;-56
2021/12/09 07:15:25;;;;;;;6.93;3.43;;;6.20;99.90;;;;;;5052802;28;20257;-55
2021/12/09 07:17:52;;;;;;;8.67;4.20;;;6.20;99.90;;;;;;5052588;28;20222;-55
2021/12/09 07:20:22;;;;;;;21.60;10.30;;;6.20;99.90;;;;;;5051878;28;20221;-54
2021/12/09 07:22:50;;;;;;;8.27;4.07;;;6.20;99.90;;;;;;5052114;28;20219;-55
2021/12/09 07:25:17;;;;;;;8.73;3.87;;;6.20;99.90;;;;;;5051292;28;20701;-54
2021/12/09 07:27:45;;;;;;;12.47;4.07;;;6.20;99.90;;;;;;5052140;28;20202;-55
2021/12/09 07:30:14;;;;;;;9.10;4.63;;;6.30;99.90;;;;;;5051829;28;20233;-55
2021/12/09 07:32:43;;;;;;;10.47;4.80;;;6.40;99.90;;;;;;5052090;28;20235;-55
2021/12/09 07:35:11;;;;;;;10.77;4.03;;;6.40;99.90;;;;;;5052113;28;20209;-55
2021/12/09 07:37:39;;;;;;;8.33;3.90;;;6.50;99.90;;;;;;5051749;28;20210;-55
2021/12/09 07:40:09;;;;;;;13.60;5.73;;;6.50;99.90;;;;;;5051492;28;20246;-54
2021/12/09 07:42:36;;;;;;;5.50;4.00;;;6.60;99.90;;;;;;5052156;28;20205;-56
2021/12/09 07:45:04;;;;;;;9.27;4.30;;;6.60;99.90;;;;;;5051695;28;20232;-56
2021/12/09 07:47:31;;;;;;;7.50;3.30;;;6.60;99.90;;;;;;5051716;28;20226;-63
2021/12/09 07:49:59;;;;;;;9.10;3.60;;;6.60;99.90;;;;;;5051372;28;20221;-56
2021/12/09 07:52:26;;;;;;;7.37;3.80;;;6.70;99.90;;;;;;5052731;28;20229;-57
2021/12/09 07:54:53;;;;;;;8.53;3.97;;;6.80;99.90;;;;;;5052869;28;20205;-58
2021/12/09 07:57:20;;;;;;;9.13;4.80;;;6.90;99.90;;;;;;5051888;28;20259;-57
2021/12/09 07:59:46;;;;;;;8.03;3.53;;;7.00;99.90;;;;;;5051839;28;20545;-57
2021/12/09 08:02:13;;;;;;;5.43;3.37;;;7.10;99.90;;;;;;5051757;28;20205;-57
2021/12/09 08:04:40;;;;;;;13.40;5.60;;;7.20;99.90;;;;;;5051496;28;20573;-57
2021/12/09 08:07:08;;;;;;;11.13;5.10;;;7.30;99.90;;;;;;5051755;28;20226;-56
2021/12/09 08:09:34;;;;;;;7.50;3.60;;;7.40;99.90;;;;;;5051609;28;20209;-57
2021/12/09 08:12:01;;;;;;;6.47;3.53;;;7.40;99.90;;;;;;5051550;28;20676;-56
2021/12/09 08:14:28;;;;;;;8.97;3.63;;;7.40;99.90;;;;;;5051828;28;20210;-55
2021/12/09 08:17:10;;;;;;;11.40;4.40;;;7.50;99.90;;;;;;5051531;28;20563;-56
2021/12/09 08:19:37;;;;;;;6.40;3.47;;;7.60;99.90;;;;;;5051751;28;20300;-58
2021/12/09 08:22:04;;;;;;;7.60;3.40;;;7.70;99.90;;;;;;5051666;28;20603;-57
2021/12/09 08:24:32;;;;;;;9.63;3.23;;;7.70;99.90;;;;;;5051618;28;20264;-57
2021/12/09 08:26:59;;;;;;;6.93;3.33;;;7.70;99.90;;;;;;5051740;28;20291;-58
2021/12/09 08:29:26;;;;;;;11.03;6.17;;;7.80;99.90;;;;;;5051237;28;20213;-57
2021/12/09 08:31:52;;;;;;;11.10;5.03;;;7.90;99.90;;;;;;5050829;28;20658;-56
2021/12/09 08:34:19;;;;;;;5.70;3.53;;;7.90;99.90;;;;;;5051704;28;20213;-59
2021/12/09 08:36:46;;;;;;;6.30;3.30;;;8.00;99.90;;;;;;5052640;28;20208;-57
2021/12/09 08:39:12;;;;;;;8.23;3.60;;;8.10;99.90;;;;;;5055201;28;20696;-56
2021/12/09 08:41:41;;;;;;;9.30;3.80;;;8.20;99.90;;;;;;5054681;28;20245;-56
2021/12/09 08:44:08;;;;;;;12.30;3.97;;;8.20;99.90;;;;;;5054903;28;20229;-57
2021/12/09 08:46:35;;;;;;;8.73;3.37;;;8.30;99.90;;;;;;5054902;28;20228;-57
2021/12/09 08:49:01;;;;;;;11.27;3.60;;;8.30;99.90;;;;;;5055275;28;20270;-56
2021/12/09 08:51:29;;;;;;;8.03;3.43;;;8.40;99.90;;;;;;5054685;28;20280;-57
2021/12/09 08:53:58;;;;;;;8.47;3.30;;;8.50;99.90;;;;;;5054990;28;20783;-56
2021/12/09 08:56:25;;;;;;;7.50;3.20;;;8.50;99.90;;;;;;5054771;28;20585;-56
2021/12/09 08:58:53;;;;;;;8.43;3.30;;;8.50;99.90;;;;;;5054679;28;20205;-57
2021/12/09 09:01:20;;;;;;;6.43;2.93;;;8.50;99.90;;;;;;5054529;28;20230;-56
2021/12/09 09:03:46;;;;;;;9.93;3.10;;;8.60;99.90;;;;;;5054864;28;20232;-57
2021/12/09 09:06:13;;;;;;;6.27;3.07;;;8.50;99.90;;;;;;5054591;28;20224;-56
2021/12/09 09:08:40;;;;;;;7.57;3.30;;;8.50;99.90;;;;;;5054678;28;20280;-57
2021/12/09 09:11:07;;;;;;;6.03;3.23;;;8.50;99.90;;;;;;5054185;28;20229;-56
2021/12/09 09:13:34;;;;;;;6.10;3.10;;;8.50;99.90;;;;;;5054433;28;20209;-57
2021/12/09 09:16:02;;;;;;;9.07;3.70;;;8.60;99.90;;;;;;5054616;28;20729;-57
2021/12/09 09:18:29;;;;;;;7.27;3.10;;;8.70;99.90;;;;;;5054664;28;20205;-57
2021/12/09 09:20:55;;;;;;;6.77;3.40;;;8.80;99.90;;;;;;5054333;28;20225;-57
2021/12/09 09:23:23;;;;;;;10.43;4.60;;;8.90;99.90;;;;;;5055111;28;20209;-57
2021/12/09 09:25:50;;;;;;;6.53;3.30;;;8.90;99.90;;;;;;5054680;28;20206;-57
2021/12/09 09:28:18;;;;;;;7.20;4.03;;;8.90;99.90;;;;;;5055233;28;20205;-57
2021/12/09 09:30:52;;;;;;;5.50;3.37;;;9.00;99.90;;;;;;5054915;28;20225;-58
2021/12/09 09:33:23;;;;;;;6.90;3.87;;;9.00;99.90;;;;;;5054668;28;20205;-63
2021/12/09 09:35:50;;;;;;;5.20;3.20;;;9.10;99.90;;;;;;5054359;28;20670;-62
2021/12/09 09:38:18;;;;;;;8.90;3.20;;;9.00;99.90;;;;;;5054130;28;20645;-65
2021/12/09 09:40:50;;;;;;;9.53;4.03;;;9.00;99.90;;;;;;5053904;28;20260;-64
2021/12/09 09:43:29;;;;;;;7.33;3.80;;;9.00;99.90;;;;;;5054146;28;20209;-57
2021/12/09 09:45:58;;;;;;;8.00;3.37;;;9.10;99.90;;;;;;5054745;28;20205;-57
2021/12/09 09:48:27;;;;;;;5.73;3.17;;;9.10;99.90;;;;;;5053448;28;20210;-58
2021/12/09 09:50:54;;;;;;;8.43;3.87;;;9.10;99.90;;;;;;5054340;28;20729;-57
2021/12/09 09:53:21;;;;;;;8.07;3.93;;;9.20;99.90;;;;;;5054466;28;20213;-57
2021/12/09 09:55:48;;;;;;;6.13;3.40;;;9.50;99.90;;;;;;5054151;28;20205;-57
2021/12/09 09:58:16;;;;;;;14.33;7.00;;;9.60;99.90;;;;;;5054311;28;20201;-56
2021/12/09 10:00:43;;;;;;;5.10;3.20;;;9.70;99.90;;;;;;5053833;28;20230;-57
2021/12/09 10:03:16;;;;;;;8.47;3.37;;;9.90;99.90;;;;;;5053964;28;20209;-57
2021/12/09 10:05:47;;;;;;;8.87;4.67;;;9.90;99.90;;;;;;5053925;28;20214;-57
2021/12/09 10:08:15;;;;;;;7.33;4.00;;;9.90;99.90;;;;;;5054023;28;20602;-57
2021/12/09 10:10:43;;;;;;;7.57;3.70;;;9.90;99.90;;;;;;5053735;28;20512;-56
2021/12/09 10:13:13;;;;;;;5.50;3.07;;;10.00;99.90;;;;;;5053913;28;20205;-58
2021/12/09 10:15:44;;;;;;;10.80;4.83;;;10.00;99.90;;;;;;5053934;28;20233;-58
2021/12/09 10:18:12;;;;;;;5.73;3.20;;;9.90;99.90;;;;;;5053625;28;20259;-57
2021/12/09 10:20:49;;;;;;;6.33;3.60;;;9.90;99.90;;;;;;5053456;28;20283;-56
2021/12/09 10:23:32;;;;;;;5.47;3.60;;;9.70;99.90;;;;;;5053564;28;20205;-57
2021/12/09 10:26:26;;;;;;;4.33;3.50;;;9.60;99.90;;;;;;5053360;28;20722;-57
2021/12/09 10:28:56;;;;;;;7.57;3.50;;;9.60;99.90;;;;;;5029331;28;20210;-56
2021/12/09 10:31:27;;;;;;;7.50;3.57;;;9.60;99.90;;;;;;5052995;28;20724;-56
2021/12/09 10:34:14;;;;;;;5.67;3.83;;;9.60;99.90;;;;;;5053006;28;20678;-56
2021/12/09 10:36:55;;;;;;;6.00;4.13;;;9.70;99.90;;;;;;5052851;28;20201;-57
2021/12/09 10:39:26;;;;;;;7.40;4.77;;;9.70;99.90;;;;;;5052930;28;20212;-56
2021/12/09 10:41:55;;;;;;;9.17;4.63;;;9.80;99.90;;;;;;5051976;28;20649;-56
2021/12/09 10:44:34;;;;;;;8.03;4.80;;;9.80;99.90;;;;;;5052785;28;20224;-57
2021/12/09 10:47:09;;;;;;;8.17;4.80;;;9.90;99.90;;;;;;5052502;28;20588;-57
2021/12/09 10:49:51;;;;;;;9.90;4.80;;;10.00;99.90;;;;;;5052782;28;20300;-56
2021/12/09 10:52:37;;;;;;;6.60;4.30;;;10.10;99.90;;;;;;5052618;28;20293;-57
2021/12/09 10:55:24;;;;;;;8.30;4.80;;;10.10;99.90;;;;;;5052643;28;20575;-56
2021/12/09 10:57:57;;;;;;;8.17;4.90;;;10.00;99.90;;;;;;5052744;28;20197;-58
2021/12/09 11:00:28;;;;;;;8.37;5.13;;;10.00;99.90;;;;;;5052325;28;20240;-57
2021/12/09 11:03:15;;;;;;;8.27;4.90;;;10.10;99.90;;;;;;5052481;28;20209;-58
2021/12/09 11:05:45;;;;;;;8.60;4.80;;;10.20;99.90;;;;;;5052197;28;20224;-57
2021/12/09 11:08:21;;;;;;;9.00;5.20;;;10.20;99.90;;;;;;5052008;28;20628;-57
2021/12/09 11:10:50;;;;;;;9.43;4.83;;;10.00;99.90;;;;;;5052145;28;20229;-56
2021/12/09 11:13:19;;;;;;;13.87;4.90;;;9.90;99.90;;;;;;5052072;28;20241;-56
2021/12/09 11:15:54;;;;;;;8.00;4.83;;;10.10;99.90;;;;;;5052367;28;20619;-56
2021/12/09 11:18:34;;;;;;;8.40;4.90;;;10.20;99.90;;;;;;5052223;28;20205;-56
2021/12/09 11:21:03;;;;;;;6.70;5.10;;;10.40;99.90;;;;;;5052112;28;20305;-56
2021/12/09 11:23:37;;;;;;;9.03;5.07;;;10.50;99.90;;;;;;5052163;28;20216;-59
2021/12/09 11:26:31;;;;;;;9.43;4.57;;;10.50;99.90;;;;;;5051930;28;20209;-57
2021/12/09 11:29:01;;;;;;;10.00;6.17;;;10.60;99.90;;;;;;5052172;28;20288;-57
2021/12/09 11:31:33;;;;;;;10.13;4.80;;;10.50;99.90;;;;;;5051941;28;20328;-57
2021/12/09 11:34:07;;;;;;;10.53;5.30;;;10.60;99.90;;;;;;5052071;28;20270;-57
2021/12/09 11:36:43;;;;;;;9.17;5.70;;;10.50;99.90;;;;;;5051832;28;20208;-57
2021/12/09 11:39:16;;;;;;;10.13;5.37;;;10.50;99.90;;;;;;5052007;28;20618;-57
2021/12/09 11:41:44;;;;;;;10.40;5.63;;;10.40;99.90;;;;;;5052912;28;20237;-56
2021/12/09 11:44:12;;;;;;;8.70;5.50;;;10.50;99.90;;;;;;5052274;28;20201;-57
2021/12/09 11:46:41;;;;;;;13.53;7.00;;;10.30;99.90;;;;;;5052223;28;20213;-57
2021/12/09 11:49:07;;;;;;;10.70;6.30;;;10.00;99.90;;;;;;5052222;28;20299;-57
2021/12/09 11:51:35;;;;;;;10.83;6.30;;;9.60;99.90;;;;;;5052208;28;20233;-57
2021/12/09 11:54:04;;;;;;;9.07;5.90;;;9.40;99.90;;;;;;5051572;28;20212;-57
2021/12/09 11:56:39;;;;;;;9.90;5.97;;;9.20;99.90;;;;;;5051677;28;20202;-58
2021/12/09 11:59:27;;;;;;;14.80;6.10;;;8.90;99.90;;;;;;5051905;28;20304;-59
2021/12/09 12:13:42;;;;;;;10.90;6.90;;;8.90;99.90;;;;;;5055556;28;20216;-56
2021/12/09 12:16:40;;;;;;;12.97;7.27;;;8.90;99.90;;;;;;5056112;28;20244;-58
2021/12/09 12:19:15;;;;;;;10.57;7.30;;;8.70;99.90;;;;;;5055813;28;20638;-57
2021/12/09 12:22:07;;;;;;;14.57;8.37;;;8.60;99.90;;;;;;5055999;28;20708;-58
2021/12/09 12:31:10;;;;;;;15.87;7.37;;;8.30;99.90;;;;;;5039445;28;20220;-58
2021/12/09 12:37:20;;;;;;;15.40;8.10;;;8.30;99.90;;;;;;5054726;28;20211;-56
2021/12/09 12:40:10;;;;;;;10.37;6.57;;;8.30;99.90;;;;;;5055469;28;20688;-56
2021/12/09 12:42:47;;;;;;;9.23;6.40;;;8.10;99.90;;;;;;5055488;28;20229;-59
2021/12/09 12:45:38;;;;;;;14.07;6.57;;;8.00;99.90;;;;;;5055820;28;20213;-57
2021/12/09 12:48:42;;;;;;;9.30;5.07;;;7.80;99.90;;;;;;5055298;28;20301;-56
2021/12/09 12:51:14;;;;;;;10.47;4.30;;;7.90;99.90;;;;;;5055256;28;20248;-56
2021/12/09 12:53:43;;;;;;;7.67;4.30;;;8.00;99.90;;;;;;5055458;28;20594;-56
2021/12/09 12:56:14;;;;;;;8.33;4.50;;;8.20;99.90;;;;;;5055672;28;20229;-58
2021/12/09 12:59:19;;;;;;;6.93;3.73;;;8.20;99.90;;;;;;5055525;28;20197;-56
2021/12/09 13:02:15;;;;;;;8.97;3.70;;;8.50;99.90;;;;;;5055112;28;20261;-56
2021/12/09 13:04:54;;;;;;;9.47;3.57;;;8.60;99.90;;;;;;5056852;28;20229;-59
2021/12/09 13:07:32;;;;;;;8.63;3.77;;;8.40;99.90;;;;;;5055761;28;20593;-60
2021/12/09 13:10:26;;;;;;;8.63;4.20;;;8.50;99.90;;;;;;5036810;28;20248;-55
2021/12/09 13:13:16;;;;;;;5.67;3.70;;;8.60;99.90;;;;;;5035623;28;20301;-55
2021/12/09 13:16:04;;;;;;;10.33;4.03;;;8.60;99.90;;;;;;5034986;28;20591;-55
2021/12/09 13:18:45;;;;;;;11.43;4.60;;;8.70;99.90;;;;;;5034900;28;20214;-55
2021/12/09 13:21:39;;;;;;;12.00;3.53;;;8.70;99.90;;;;;;5034678;28;20701;-55
2021/12/09 13:24:46;;;;;;;9.67;3.87;;;8.60;99.90;;;;;;5033960;28;20210;-56
2021/12/09 13:27:49;;;;;;;9.90;4.00;;;8.40;99.90;;;;;;5034150;28;20248;-54
2021/12/09 13:30:58;;;;;;;10.37;3.07;;;8.10;99.90;;;;;;5034917;28;20308;-58